sensor_id;sensor_type;location;lat;lon;timestamp;temperature;humidity
66190;DHT22;52992;52.084;5.412;2022-11-12T00:01:37;11.20;60.10
66190;DHT22;52992;52.084;5.412;2022-11-12T00:04:23;11.00;60.20
66190;DHT22;52992;52.084;5.412;2022-11-12T00:07:09;10.90;60.50
66190;DHT22;52992;52.084;5.412;2022-11-12T00:09:54;10.90;60.40
66190;DHT22;52992;52.084;5.412;2022-11-12T00:12:39;10.90;60.50
66190;DHT22;52992;52.084;5.412;2022-11-12T00:15:25;10.80;60.50
66190;DHT22;52992;52.084;5.412;2022-11-12T00:18:11;10.80;60.40
66190;DHT22;52992;52.084;5.412;2022-11-12T00:20:56;10.80;60.60
66190;DHT22;52992;52.084;5.412;2022-11-12T00:23:42;10.80;60.50
66190;DHT22;52992;52.084;5.412;2022-11-12T00:26:28;10.80;60.50
66190;DHT22;52992;52.084;5.412;2022-11-12T00:29:13;10.80;60.40
66190;DHT22;52992;52.084;5.412;2022-11-12T00:31:59;10.80;60.20
66190;DHT22;52992;52.084;5.412;2022-11-12T00:34:45;10.80;60.10
66190;DHT22;52992;52.084;5.412;2022-11-12T00:37:30;10.80;60.10
66190;DHT22;52992;52.084;5.412;2022-11-12T00:40:16;10.80;60.00
66190;DHT22;52992;52.084;5.412;2022-11-12T00:43:01;10.70;60.10
66190;DHT22;52992;52.084;5.412;2022-11-12T00:45:47;10.70;60.20
66190;DHT22;52992;52.084;5.412;2022-11-12T00:48:32;10.70;60.20
66190;DHT22;52992;52.084;5.412;2022-11-12T00:51:18;10.70;60.30
66190;DHT22;52992;52.084;5.412;2022-11-12T00:54:03;10.70;60.40
66190;DHT22;52992;52.084;5.412;2022-11-12T00:56:49;10.60;60.40
66190;DHT22;52992;52.084;5.412;2022-11-12T00:59:34;10.70;60.50
66190;DHT22;52992;52.084;5.412;2022-11-12T01:02:20;10.60;60.40
66190;DHT22;52992;52.084;5.412;2022-11-12T01:05:06;10.60;60.40
66190;DHT22;52992;52.084;5.412;2022-11-12T01:07:52;10.60;60.40
66190;DHT22;52992;52.084;5.412;2022-11-12T01:10:40;10.50;60.50
66190;DHT22;52992;52.084;5.412;2022-11-12T01:13:28;10.60;60.50
66190;DHT22;52992;52.084;5.412;2022-11-12T01:16:17;10.50;60.50
66190;DHT22;52992;52.084;5.412;2022-11-12T01:19:08;10.50;60.40
66190;DHT22;52992;52.084;5.412;2022-11-12T01:21:53;10.50;60.40
66190;DHT22;52992;52.084;5.412;2022-11-12T01:24:39;10.50;60.50
66190;DHT22;52992;52.084;5.412;2022-11-12T01:27:24;10.50;60.50
66190;DHT22;52992;52.084;5.412;2022-11-12T01:30:10;10.50;60.50
66190;DHT22;52992;52.084;5.412;2022-11-12T01:32:56;10.50;60.40
66190;DHT22;52992;52.084;5.412;2022-11-12T01:35:41;10.50;60.40
66190;DHT22;52992;52.084;5.412;2022-11-12T01:38:27;10.40;60.30
66190;DHT22;52992;52.084;5.412;2022-11-12T01:41:19;10.50;60.40
66190;DHT22;52992;52.084;5.412;2022-11-12T01:44:17;10.40;60.30
66190;DHT22;52992;52.084;5.412;2022-11-12T01:50:07;10.40;60.30
66190;DHT22;52992;52.084;5.412;2022-11-12T01:53:05;10.40;60.30
66190;DHT22;52992;52.084;5.412;2022-11-12T01:55:53;10.40;60.20
66190;DHT22;52992;52.084;5.412;2022-11-12T01:58:40;10.40;60.30
66190;DHT22;52992;52.084;5.412;2022-11-12T02:01:25;10.40;60.90
66190;DHT22;52992;52.084;5.412;2022-11-12T02:04:11;10.40;60.40
66190;DHT22;52992;52.084;5.412;2022-11-12T02:06:57;10.40;60.40
66190;DHT22;52992;52.084;5.412;2022-11-12T02:09:43;10.30;60.40
66190;DHT22;52992;52.084;5.412;2022-11-12T02:12:29;10.30;60.40
66190;DHT22;52992;52.084;5.412;2022-11-12T02:15:33;10.40;60.30
66190;DHT22;52992;52.084;5.412;2022-11-12T02:18:18;10.30;60.40
66190;DHT22;52992;52.084;5.412;2022-11-12T02:21:07;10.30;60.40
66190;DHT22;52992;52.084;5.412;2022-11-12T02:27:05;10.30;60.30
66190;DHT22;52992;52.084;5.412;2022-11-12T02:29:51;10.20;60.10
66190;DHT22;52992;52.084;5.412;2022-11-12T02:32:36;10.20;60.20
66190;DHT22;52992;52.084;5.412;2022-11-12T02:35:22;10.10;60.10
66190;DHT22;52992;52.084;5.412;2022-11-12T02:38:08;10.20;60.00
66190;DHT22;52992;52.084;5.412;2022-11-12T02:40:54;10.10;60.00
66190;DHT22;52992;52.084;5.412;2022-11-12T02:43:40;10.20;59.80
66190;DHT22;52992;52.084;5.412;2022-11-12T02:46:25;10.20;59.70
66190;DHT22;52992;52.084;5.412;2022-11-12T02:49:11;10.10;60.00
66190;DHT22;52992;52.084;5.412;2022-11-12T02:51:56;10.10;60.10
66190;DHT22;52992;52.084;5.412;2022-11-12T02:54:42;10.10;60.00
66190;DHT22;52992;52.084;5.412;2022-11-12T02:57:28;10.20;59.70
66190;DHT22;52992;52.084;5.412;2022-11-12T03:00:14;10.10;59.90
66190;DHT22;52992;52.084;5.412;2022-11-12T03:03:00;10.00;59.70
66190;DHT22;52992;52.084;5.412;2022-11-12T03:05:54;10.00;59.70
66190;DHT22;52992;52.084;5.412;2022-11-12T03:08:40;10.00;59.80
66190;DHT22;52992;52.084;5.412;2022-11-12T03:11:25;10.00;59.70
66190;DHT22;52992;52.084;5.412;2022-11-12T03:14:11;10.00;59.70
66190;DHT22;52992;52.084;5.412;2022-11-12T03:16:56;10.00;59.70
66190;DHT22;52992;52.084;5.412;2022-11-12T03:19:42;10.00;59.70
66190;DHT22;52992;52.084;5.412;2022-11-12T03:22:28;9.90;59.60
66190;DHT22;52992;52.084;5.412;2022-11-12T03:25:13;9.90;59.60
66190;DHT22;52992;52.084;5.412;2022-11-12T03:28:09;9.90;59.60
66190;DHT22;52992;52.084;5.412;2022-11-12T03:30:57;9.90;59.60
66190;DHT22;52992;52.084;5.412;2022-11-12T03:33:43;9.90;59.60
66190;DHT22;52992;52.084;5.412;2022-11-12T03:36:29;9.90;59.60
66190;DHT22;52992;52.084;5.412;2022-11-12T03:39:14;9.80;59.50
66190;DHT22;52992;52.084;5.412;2022-11-12T03:42:00;9.90;59.60
66190;DHT22;52992;52.084;5.412;2022-11-12T03:44:45;9.80;59.40
66190;DHT22;52992;52.084;5.412;2022-11-12T03:47:31;9.80;59.20
66190;DHT22;52992;52.084;5.412;2022-11-12T03:50:18;9.70;59.10
66190;DHT22;52992;52.084;5.412;2022-11-12T03:53:03;9.70;59.10
66190;DHT22;52992;52.084;5.412;2022-11-12T03:55:49;9.70;59.10
66190;DHT22;52992;52.084;5.412;2022-11-12T03:58:34;9.70;59.10
66190;DHT22;52992;52.084;5.412;2022-11-12T04:01:20;9.60;59.10
66190;DHT22;52992;52.084;5.412;2022-11-12T04:04:05;9.60;59.10
66190;DHT22;52992;52.084;5.412;2022-11-12T04:06:51;9.60;59.10
66190;DHT22;52992;52.084;5.412;2022-11-12T04:09:55;9.60;59.10
66190;DHT22;52992;52.084;5.412;2022-11-12T04:12:40;9.60;59.10
66190;DHT22;52992;52.084;5.412;2022-11-12T04:15:44;9.60;59.10
66190;DHT22;52992;52.084;5.412;2022-11-12T04:18:51;9.60;59.10
66190;DHT22;52992;52.084;5.412;2022-11-12T04:22:06;9.60;59.20
66190;DHT22;52992;52.084;5.412;2022-11-12T04:24:52;9.60;59.30
66190;DHT22;52992;52.084;5.412;2022-11-12T04:27:56;9.60;59.30
66190;DHT22;52992;52.084;5.412;2022-11-12T04:30:42;9.60;59.30
66190;DHT22;52992;52.084;5.412;2022-11-12T04:33:27;9.60;59.40
66190;DHT22;52992;52.084;5.412;2022-11-12T04:36:13;9.60;59.50
66190;DHT22;52992;52.084;5.412;2022-11-12T04:38:58;9.60;59.50
66190;DHT22;52992;52.084;5.412;2022-11-12T04:41:43;9.60;59.50
66190;DHT22;52992;52.084;5.412;2022-11-12T04:44:47;9.60;59.50
66190;DHT22;52992;52.084;5.412;2022-11-12T04:47:49;9.60;59.60
66190;DHT22;52992;52.084;5.412;2022-11-12T04:50:34;9.60;59.50
66190;DHT22;52992;52.084;5.412;2022-11-12T04:53:20;9.60;59.50
66190;DHT22;52992;52.084;5.412;2022-11-12T04:56:06;9.60;59.60
66190;DHT22;52992;52.084;5.412;2022-11-12T04:58:51;9.70;59.70
66190;DHT22;52992;52.084;5.412;2022-11-12T05:01:36;9.60;59.60
66190;DHT22;52992;52.084;5.412;2022-11-12T05:04:22;9.70;59.70
66190;DHT22;52992;52.084;5.412;2022-11-12T05:07:12;9.70;59.70
66190;DHT22;52992;52.084;5.412;2022-11-12T05:09:57;9.60;59.60
66190;DHT22;52992;52.084;5.412;2022-11-12T05:12:43;9.60;59.50
66190;DHT22;52992;52.084;5.412;2022-11-12T05:15:29;9.60;59.50
66190;DHT22;52992;52.084;5.412;2022-11-12T05:18:14;9.60;59.50
66190;DHT22;52992;52.084;5.412;2022-11-12T05:21:00;9.60;59.50
66190;DHT22;52992;52.084;5.412;2022-11-12T05:24:05;9.60;59.50
66190;DHT22;52992;52.084;5.412;2022-11-12T05:26:51;9.50;59.40
66190;DHT22;52992;52.084;5.412;2022-11-12T05:29:37;9.50;59.40
66190;DHT22;52992;52.084;5.412;2022-11-12T05:32:22;9.50;59.40
66190;DHT22;52992;52.084;5.412;2022-11-12T05:35:08;9.50;59.20
66190;DHT22;52992;52.084;5.412;2022-11-12T05:37:54;9.40;59.00
66190;DHT22;52992;52.084;5.412;2022-11-12T05:40:43;9.40;58.90
66190;DHT22;52992;52.084;5.412;2022-11-12T05:43:29;9.30;58.70
66190;DHT22;52992;52.084;5.412;2022-11-12T05:46:15;9.30;58.70
66190;DHT22;52992;52.084;5.412;2022-11-12T05:49:00;9.30;58.70
66190;DHT22;52992;52.084;5.412;2022-11-12T05:51:46;9.30;58.80
66190;DHT22;52992;52.084;5.412;2022-11-12T05:54:31;9.20;58.60
66190;DHT22;52992;52.084;5.412;2022-11-12T05:57:17;9.30;58.70
66190;DHT22;52992;52.084;5.412;2022-11-12T06:00:03;9.20;58.50
66190;DHT22;52992;52.084;5.412;2022-11-12T06:02:48;9.30;58.50
66190;DHT22;52992;52.084;5.412;2022-11-12T06:05:34;9.20;58.40
66190;DHT22;52992;52.084;5.412;2022-11-12T06:08:20;9.20;58.40
66190;DHT22;52992;52.084;5.412;2022-11-12T06:11:06;9.20;58.40
66190;DHT22;52992;52.084;5.412;2022-11-12T06:13:51;9.20;58.40
66190;DHT22;52992;52.084;5.412;2022-11-12T06:16:37;9.20;58.50
66190;DHT22;52992;52.084;5.412;2022-11-12T06:19:22;9.20;59.30
66190;DHT22;52992;52.084;5.412;2022-11-12T06:22:08;9.10;58.60
66190;DHT22;52992;52.084;5.412;2022-11-12T06:24:53;9.10;58.70
66190;DHT22;52992;52.084;5.412;2022-11-12T06:27:39;9.10;58.70
66190;DHT22;52992;52.084;5.412;2022-11-12T06:30:24;9.00;58.50
66190;DHT22;52992;52.084;5.412;2022-11-12T06:33:10;9.00;58.50
66190;DHT22;52992;52.084;5.412;2022-11-12T06:36:00;9.00;58.60
66190;DHT22;52992;52.084;5.412;2022-11-12T06:38:48;9.00;58.60
66190;DHT22;52992;52.084;5.412;2022-11-12T06:41:33;9.00;58.60
66190;DHT22;52992;52.084;5.412;2022-11-12T06:44:18;9.00;58.60
66190;DHT22;52992;52.084;5.412;2022-11-12T06:47:07;8.90;58.60
66190;DHT22;52992;52.084;5.412;2022-11-12T06:49:52;8.90;58.50
66190;DHT22;52992;52.084;5.412;2022-11-12T06:52:38;8.90;58.50
66190;DHT22;52992;52.084;5.412;2022-11-12T06:55:23;8.90;58.60
66190;DHT22;52992;52.084;5.412;2022-11-12T06:58:08;9.00;58.60
66190;DHT22;52992;52.084;5.412;2022-11-12T07:00:57;9.00;58.60
66190;DHT22;52992;52.084;5.412;2022-11-12T07:03:43;8.90;58.60
66190;DHT22;52992;52.084;5.412;2022-11-12T07:06:29;9.00;58.50
66190;DHT22;52992;52.084;5.412;2022-11-12T07:09:15;8.90;58.50
66190;DHT22;52992;52.084;5.412;2022-11-12T07:12:00;9.00;58.50
66190;DHT22;52992;52.084;5.412;2022-11-12T07:14:46;8.90;58.50
66190;DHT22;52992;52.084;5.412;2022-11-12T07:17:31;9.00;58.50
66190;DHT22;52992;52.084;5.412;2022-11-12T07:20:17;9.00;58.40
66190;DHT22;52992;52.084;5.412;2022-11-12T07:23:02;9.00;58.40
66190;DHT22;52992;52.084;5.412;2022-11-12T07:25:55;9.00;58.30
66190;DHT22;52992;52.084;5.412;2022-11-12T07:28:41;9.10;58.40
66190;DHT22;52992;52.084;5.412;2022-11-12T07:31:27;9.20;58.20
66190;DHT22;52992;52.084;5.412;2022-11-12T07:34:12;9.10;58.20
66190;DHT22;52992;52.084;5.412;2022-11-12T07:36:58;9.10;58.30
66190;DHT22;52992;52.084;5.412;2022-11-12T07:39:43;9.10;58.50
66190;DHT22;52992;52.084;5.412;2022-11-12T07:42:32;9.10;58.50
66190;DHT22;52992;52.084;5.412;2022-11-12T07:45:17;9.10;58.50
66190;DHT22;52992;52.084;5.412;2022-11-12T07:48:03;9.20;58.40
66190;DHT22;52992;52.084;5.412;2022-11-12T07:50:48;9.20;58.50
66190;DHT22;52992;52.084;5.412;2022-11-12T07:53:34;9.20;58.50
66190;DHT22;52992;52.084;5.412;2022-11-12T07:56:22;9.30;58.60
66190;DHT22;52992;52.084;5.412;2022-11-12T07:59:08;9.30;58.60
66190;DHT22;52992;52.084;5.412;2022-11-12T08:01:53;9.40;58.60
66190;DHT22;52992;52.084;5.412;2022-11-12T08:04:39;9.40;58.70
66190;DHT22;52992;52.084;5.412;2022-11-12T08:07:25;9.50;58.70
66190;DHT22;52992;52.084;5.412;2022-11-12T08:10:11;9.60;58.70
66190;DHT22;52992;52.084;5.412;2022-11-12T08:12:58;9.60;58.70
66190;DHT22;52992;52.084;5.412;2022-11-12T08:15:44;9.70;58.90
66190;DHT22;52992;52.084;5.412;2022-11-12T08:18:36;9.80;58.90
66190;DHT22;52992;52.084;5.412;2022-11-12T08:21:21;9.80;58.90
66190;DHT22;52992;52.084;5.412;2022-11-12T08:24:07;9.90;59.00
66190;DHT22;52992;52.084;5.412;2022-11-12T08:26:52;10.00;58.90
66190;DHT22;52992;52.084;5.412;2022-11-12T08:29:38;10.10;59.20
66190;DHT22;52992;52.084;5.412;2022-11-12T08:32:23;10.20;59.30
66190;DHT22;52992;52.084;5.412;2022-11-12T08:35:09;10.30;59.50
66190;DHT22;52992;52.084;5.412;2022-11-12T08:38:03;10.40;59.60
66190;DHT22;52992;52.084;5.412;2022-11-12T08:40:49;10.50;60.00
66190;DHT22;52992;52.084;5.412;2022-11-12T08:43:35;10.60;59.90
66190;DHT22;52992;52.084;5.412;2022-11-12T08:46:20;10.60;60.10
66190;DHT22;52992;52.084;5.412;2022-11-12T08:49:06;10.70;60.10
66190;DHT22;52992;52.084;5.412;2022-11-12T08:51:51;10.80;60.10
66190;DHT22;52992;52.084;5.412;2022-11-12T08:54:37;11.00;60.10
66190;DHT22;52992;52.084;5.412;2022-11-12T08:57:22;11.00;60.10
66190;DHT22;52992;52.084;5.412;2022-11-12T09:00:11;11.10;60.30
66190;DHT22;52992;52.084;5.412;2022-11-12T09:03:05;11.20;60.20
66190;DHT22;52992;52.084;5.412;2022-11-12T09:05:51;11.30;61.00
66190;DHT22;52992;52.084;5.412;2022-11-12T09:08:37;11.40;60.00
66190;DHT22;52992;52.084;5.412;2022-11-12T09:11:23;11.50;60.10
66190;DHT22;52992;52.084;5.412;2022-11-12T09:14:09;11.50;59.90
66190;DHT22;52992;52.084;5.412;2022-11-12T09:16:55;11.60;59.90
66190;DHT22;52992;52.084;5.412;2022-11-12T09:19:40;11.60;60.00
66190;DHT22;52992;52.084;5.412;2022-11-12T09:22:27;11.70;60.20
66190;DHT22;52992;52.084;5.412;2022-11-12T09:25:13;11.80;60.00
66190;DHT22;52992;52.084;5.412;2022-11-12T09:28:08;11.90;60.00
66190;DHT22;52992;52.084;5.412;2022-11-12T09:30:54;12.00;60.10
66190;DHT22;52992;52.084;5.412;2022-11-12T09:33:39;12.20;60.00
66190;DHT22;52992;52.084;5.412;2022-11-12T09:36:25;12.30;59.90
66190;DHT22;52992;52.084;5.412;2022-11-12T09:39:10;12.40;59.60
66190;DHT22;52992;52.084;5.412;2022-11-12T09:41:56;12.50;59.70
66190;DHT22;52992;52.084;5.412;2022-11-12T09:45:03;12.60;59.40
66190;DHT22;52992;52.084;5.412;2022-11-12T09:47:55;12.70;59.10
66190;DHT22;52992;52.084;5.412;2022-11-12T09:50:49;12.80;58.80
66190;DHT22;52992;52.084;5.412;2022-11-12T09:56:34;13.10;58.70
66190;DHT22;52992;52.084;5.412;2022-11-12T09:59:21;13.30;58.60
66190;DHT22;52992;52.084;5.412;2022-11-12T10:02:36;13.30;58.30
66190;DHT22;52992;52.084;5.412;2022-11-12T10:08:34;13.50;58.20
66190;DHT22;52992;52.084;5.412;2022-11-12T10:11:30;13.60;58.30
66190;DHT22;52992;52.084;5.412;2022-11-12T10:18:33;13.80;58.10
66190;DHT22;52992;52.084;5.412;2022-11-12T10:24:33;13.90;57.70
66190;DHT22;52992;52.084;5.412;2022-11-12T10:27:21;14.00;57.40
66190;DHT22;52992;52.084;5.412;2022-11-12T10:30:21;14.10;57.60
66190;DHT22;52992;52.084;5.412;2022-11-12T10:33:12;14.20;57.60
66190;DHT22;52992;52.084;5.412;2022-11-12T10:39:03;14.20;58.50
66190;DHT22;52992;52.084;5.412;2022-11-12T10:42:05;14.40;57.10
66190;DHT22;52992;52.084;5.412;2022-11-12T10:44:51;14.70;57.00
66190;DHT22;52992;52.084;5.412;2022-11-12T10:47:39;14.70;56.60
66190;DHT22;52992;52.084;5.412;2022-11-12T10:50:40;14.80;56.30
66190;DHT22;52992;52.084;5.412;2022-11-12T10:53:31;14.90;56.30
66190;DHT22;52992;52.084;5.412;2022-11-12T10:56:29;15.00;55.90
66190;DHT22;52992;52.084;5.412;2022-11-12T10:59:19;15.10;55.90
66190;DHT22;52992;52.084;5.412;2022-11-12T11:02:15;15.20;55.80
66190;DHT22;52992;52.084;5.412;2022-11-12T11:08:04;15.40;55.60
66190;DHT22;52992;52.084;5.412;2022-11-12T11:17:16;15.60;55.10
66190;DHT22;52992;52.084;5.412;2022-11-12T11:20:20;15.70;55.00
66190;DHT22;52992;52.084;5.412;2022-11-12T11:23:17;15.70;55.00
66190;DHT22;52992;52.084;5.412;2022-11-12T11:29:50;15.90;55.40
66190;DHT22;52992;52.084;5.412;2022-11-12T11:33:37;15.90;54.80
66190;DHT22;52992;52.084;5.412;2022-11-12T11:36:20;15.90;54.90
66190;DHT22;52992;52.084;5.412;2022-11-12T11:39:40;15.90;54.80
66190;DHT22;52992;52.084;5.412;2022-11-12T11:45:28;16.00;54.90
66190;DHT22;52992;52.084;5.412;2022-11-12T12:01:13;16.00;55.70
66190;DHT22;52992;52.084;5.412;2022-11-12T12:07:20;16.10;54.40
66190;DHT22;52992;52.084;5.412;2022-11-12T12:10:29;16.10;54.70
66190;DHT22;52992;52.084;5.412;2022-11-12T12:13:55;16.20;54.60
66190;DHT22;52992;52.084;5.412;2022-11-12T12:20:16;16.30;54.70
66190;DHT22;52992;52.084;5.412;2022-11-12T12:23:55;16.40;54.40
66190;DHT22;52992;52.084;5.412;2022-11-12T12:26:19;16.50;54.40
66190;DHT22;52992;52.084;5.412;2022-11-12T12:29:28;16.50;54.40
66190;DHT22;52992;52.084;5.412;2022-11-12T12:32:24;16.50;54.10
66190;DHT22;52992;52.084;5.412;2022-11-12T12:35:34;16.50;54.30
66190;DHT22;52992;52.084;5.412;2022-11-12T12:38:34;16.60;54.00
66190;DHT22;52992;52.084;5.412;2022-11-12T12:41:23;16.70;54.30
66190;DHT22;52992;52.084;5.412;2022-11-12T12:44:12;16.70;54.00
66190;DHT22;52992;52.084;5.412;2022-11-12T12:47:00;16.80;53.50
66190;DHT22;52992;52.084;5.412;2022-11-12T12:49:48;16.90;53.80
66190;DHT22;52992;52.084;5.412;2022-11-12T12:53:00;17.00;53.40
66190;DHT22;52992;52.084;5.412;2022-11-12T12:55:47;17.10;53.30
66190;DHT22;52992;52.084;5.412;2022-11-12T13:01:30;16.90;53.00
66190;DHT22;52992;52.084;5.412;2022-11-12T13:04:16;17.10;53.00
66190;DHT22;52992;52.084;5.412;2022-11-12T13:07:01;17.30;52.50
66190;DHT22;52992;52.084;5.412;2022-11-12T13:16:02;17.50;52.20
66190;DHT22;52992;52.084;5.412;2022-11-12T13:21:36;17.50;52.50
66190;DHT22;52992;52.084;5.412;2022-11-12T13:33:26;17.60;52.50
66190;DHT22;52992;52.084;5.412;2022-11-12T13:36:31;17.70;52.60
66190;DHT22;52992;52.084;5.412;2022-11-12T13:39:18;17.60;52.50
66190;DHT22;52992;52.084;5.412;2022-11-12T13:42:16;17.70;52.60
66190;DHT22;52992;52.084;5.412;2022-11-12T13:45:23;17.70;52.80
66190;DHT22;52992;52.084;5.412;2022-11-12T13:48:28;17.80;53.00
66190;DHT22;52992;52.084;5.412;2022-11-12T13:57:33;17.80;52.80
66190;DHT22;52992;52.084;5.412;2022-11-12T14:00:25;17.80;52.50
66190;DHT22;52992;52.084;5.412;2022-11-12T14:03:14;17.80;52.40
66190;DHT22;52992;52.084;5.412;2022-11-12T14:06:05;17.80;52.40
66190;DHT22;52992;52.084;5.412;2022-11-12T14:18:12;17.80;52.90
66190;DHT22;52992;52.084;5.412;2022-11-12T14:21:04;17.70;53.10
66190;DHT22;52992;52.084;5.412;2022-11-12T14:23:51;17.70;53.40
66190;DHT22;52992;52.084;5.412;2022-11-12T14:26:39;17.70;53.50
66190;DHT22;52992;52.084;5.412;2022-11-12T14:29:24;17.80;53.50
66190;DHT22;52992;52.084;5.412;2022-11-12T14:32:17;17.70;53.50
66190;DHT22;52992;52.084;5.412;2022-11-12T14:35:26;17.80;53.10
66190;DHT22;52992;52.084;5.412;2022-11-12T14:38:28;17.80;52.90
66190;DHT22;52992;52.084;5.412;2022-11-12T14:41:30;17.70;52.60
66190;DHT22;52992;52.084;5.412;2022-11-12T14:44:32;17.70;52.40
66190;DHT22;52992;52.084;5.412;2022-11-12T14:47:18;17.70;52.30
66190;DHT22;52992;52.084;5.412;2022-11-12T14:50:04;17.60;52.30
66190;DHT22;52992;52.084;5.412;2022-11-12T14:52:56;17.70;52.40
66190;DHT22;52992;52.084;5.412;2022-11-12T14:55:47;17.60;51.90
66190;DHT22;52992;52.084;5.412;2022-11-12T14:58:34;17.70;51.70
66190;DHT22;52992;52.084;5.412;2022-11-12T15:01:22;17.80;51.70
66190;DHT22;52992;52.084;5.412;2022-11-12T15:04:39;17.70;51.50
66190;DHT22;52992;52.084;5.412;2022-11-12T15:10:40;17.60;51.40
66190;DHT22;52992;52.084;5.412;2022-11-12T15:13:26;17.60;51.50
66190;DHT22;52992;52.084;5.412;2022-11-12T15:16:35;17.50;51.80
66190;DHT22;52992;52.084;5.412;2022-11-12T15:19:23;17.50;51.90
66190;DHT22;52992;52.084;5.412;2022-11-12T15:22:18;17.50;51.70
66190;DHT22;52992;52.084;5.412;2022-11-12T15:25:22;17.50;51.90
66190;DHT22;52992;52.084;5.412;2022-11-12T15:28:22;17.50;51.70
66190;DHT22;52992;52.084;5.412;2022-11-12T15:31:17;17.40;51.70
66190;DHT22;52992;52.084;5.412;2022-11-12T15:40:11;17.40;52.20
66190;DHT22;52992;52.084;5.412;2022-11-12T15:43:00;17.30;52.60
66190;DHT22;52992;52.084;5.412;2022-11-12T15:45:47;17.30;52.80
66190;DHT22;52992;52.084;5.412;2022-11-12T15:48:33;17.20;52.90
66190;DHT22;52992;52.084;5.412;2022-11-12T15:51:19;17.20;53.20
66190;DHT22;52992;52.084;5.412;2022-11-12T15:54:04;17.10;53.50
66190;DHT22;52992;52.084;5.412;2022-11-12T15:56:50;17.00;53.50
66190;DHT22;52992;52.084;5.412;2022-11-12T15:59:36;17.00;53.70
66190;DHT22;52992;52.084;5.412;2022-11-12T16:02:25;16.90;54.00
66190;DHT22;52992;52.084;5.412;2022-11-12T16:05:12;16.80;54.10
66190;DHT22;52992;52.084;5.412;2022-11-12T16:07:58;16.80;54.30
66190;DHT22;52992;52.084;5.412;2022-11-12T16:10:45;16.70;54.50
66190;DHT22;52992;52.084;5.412;2022-11-12T16:13:32;16.70;54.70
66190;DHT22;52992;52.084;5.412;2022-11-12T16:16:17;16.60;54.90
66190;DHT22;52992;52.084;5.412;2022-11-12T16:19:03;16.60;54.90
66190;DHT22;52992;52.084;5.412;2022-11-12T16:21:48;16.60;55.00
66190;DHT22;52992;52.084;5.412;2022-11-12T16:24:34;16.60;55.10
66190;DHT22;52992;52.084;5.412;2022-11-12T16:27:19;16.60;55.80
66190;DHT22;52992;52.084;5.412;2022-11-12T16:30:18;16.50;55.20
66190;DHT22;52992;52.084;5.412;2022-11-12T16:33:04;16.50;55.20
66190;DHT22;52992;52.084;5.412;2022-11-12T16:35:49;16.40;55.20
66190;DHT22;52992;52.084;5.412;2022-11-12T16:38:35;16.40;55.20
66190;DHT22;52992;52.084;5.412;2022-11-12T16:41:20;16.30;55.40
66190;DHT22;52992;52.084;5.412;2022-11-12T16:44:09;16.30;55.70
66190;DHT22;52992;52.084;5.412;2022-11-12T16:46:54;16.20;55.40
66190;DHT22;52992;52.084;5.412;2022-11-12T16:49:40;16.20;55.50
66190;DHT22;52992;52.084;5.412;2022-11-12T16:52:27;16.10;55.50
66190;DHT22;52992;52.084;5.412;2022-11-12T16:55:12;16.00;55.50
66190;DHT22;52992;52.084;5.412;2022-11-12T16:57:58;15.90;55.50
66190;DHT22;52992;52.084;5.412;2022-11-12T17:00:45;15.80;55.50
66190;DHT22;52992;52.084;5.412;2022-11-12T17:03:31;15.70;55.80
66190;DHT22;52992;52.084;5.412;2022-11-12T17:06:16;15.60;55.80
66190;DHT22;52992;52.084;5.412;2022-11-12T17:09:07;15.50;56.00
66190;DHT22;52992;52.084;5.412;2022-11-12T17:11:52;15.40;56.10
66190;DHT22;52992;52.084;5.412;2022-11-12T17:14:38;15.40;56.20
66190;DHT22;52992;52.084;5.412;2022-11-12T17:17:23;15.20;56.40
66190;DHT22;52992;52.084;5.412;2022-11-12T17:20:09;15.10;56.50
66190;DHT22;52992;52.084;5.412;2022-11-12T17:22:54;15.10;56.60
66190;DHT22;52992;52.084;5.412;2022-11-12T17:25:40;15.00;56.70
66190;DHT22;52992;52.084;5.412;2022-11-12T17:28:27;15.00;56.70
66190;DHT22;52992;52.084;5.412;2022-11-12T17:31:17;14.90;56.80
66190;DHT22;52992;52.084;5.412;2022-11-12T17:34:04;14.90;56.90
66190;DHT22;52992;52.084;5.412;2022-11-12T17:36:50;14.80;56.80
66190;DHT22;52992;52.084;5.412;2022-11-12T17:39:36;14.80;57.00
66190;DHT22;52992;52.084;5.412;2022-11-12T17:42:21;14.70;57.10
66190;DHT22;52992;52.084;5.412;2022-11-12T17:45:07;14.70;57.30
66190;DHT22;52992;52.084;5.412;2022-11-12T17:47:53;14.70;57.40
66190;DHT22;52992;52.084;5.412;2022-11-12T17:50:38;14.60;57.50
66190;DHT22;52992;52.084;5.412;2022-11-12T17:53:24;14.50;57.70
66190;DHT22;52992;52.084;5.412;2022-11-12T17:56:13;14.40;57.70
66190;DHT22;52992;52.084;5.412;2022-11-12T17:58:59;14.40;58.00
66190;DHT22;52992;52.084;5.412;2022-11-12T18:01:44;14.40;58.10
66190;DHT22;52992;52.084;5.412;2022-11-12T18:04:30;14.30;58.10
66190;DHT22;52992;52.084;5.412;2022-11-12T18:07:15;14.20;58.10
66190;DHT22;52992;52.084;5.412;2022-11-12T18:10:01;14.20;58.20
66190;DHT22;52992;52.084;5.412;2022-11-12T18:12:46;14.20;58.10
66190;DHT22;52992;52.084;5.412;2022-11-12T18:15:32;14.10;58.10
66190;DHT22;52992;52.084;5.412;2022-11-12T18:18:18;14.10;58.10
66190;DHT22;52992;52.084;5.412;2022-11-12T18:21:04;14.10;58.80
66190;DHT22;52992;52.084;5.412;2022-11-12T18:23:49;14.00;58.00
66190;DHT22;52992;52.084;5.412;2022-11-12T18:26:35;14.00;58.20
66190;DHT22;52992;52.084;5.412;2022-11-12T18:29:20;13.90;58.20
66190;DHT22;52992;52.084;5.412;2022-11-12T18:32:06;13.90;58.30
66190;DHT22;52992;52.084;5.412;2022-11-12T18:34:52;13.80;58.20
66190;DHT22;52992;52.084;5.412;2022-11-12T18:37:38;13.80;58.20
66190;DHT22;52992;52.084;5.412;2022-11-12T18:40:24;13.80;58.40
66190;DHT22;52992;52.084;5.412;2022-11-12T18:43:09;13.70;58.40
66190;DHT22;52992;52.084;5.412;2022-11-12T18:45:55;13.70;58.50
66190;DHT22;52992;52.084;5.412;2022-11-12T18:48:43;13.80;58.50
66190;DHT22;52992;52.084;5.412;2022-11-12T18:51:28;13.60;58.40
66190;DHT22;52992;52.084;5.412;2022-11-12T18:54:14;13.60;58.40
66190;DHT22;52992;52.084;5.412;2022-11-12T18:57:00;13.50;58.40
66190;DHT22;52992;52.084;5.412;2022-11-12T18:59:46;13.50;58.40
66190;DHT22;52992;52.084;5.412;2022-11-12T19:02:32;13.50;58.40
66190;DHT22;52992;52.084;5.412;2022-11-12T19:05:17;13.40;58.30
66190;DHT22;52992;52.084;5.412;2022-11-12T19:08:04;13.40;58.40
66190;DHT22;52992;52.084;5.412;2022-11-12T19:10:56;13.30;58.50
66190;DHT22;52992;52.084;5.412;2022-11-12T19:13:43;13.30;58.60
66190;DHT22;52992;52.084;5.412;2022-11-12T19:16:28;13.20;58.40
66190;DHT22;52992;52.084;5.412;2022-11-12T19:19:14;13.20;58.50
66190;DHT22;52992;52.084;5.412;2022-11-12T19:21:59;13.20;58.50
66190;DHT22;52992;52.084;5.412;2022-11-12T19:24:46;13.10;58.60
66190;DHT22;52992;52.084;5.412;2022-11-12T19:27:31;13.10;58.70
66190;DHT22;52992;52.084;5.412;2022-11-12T19:30:17;13.10;58.80
66190;DHT22;52992;52.084;5.412;2022-11-12T19:33:02;12.70;61.20
66190;DHT22;52992;52.084;5.412;2022-11-12T19:35:48;12.80;60.50